EPMOEPSY

Guest
Details From EPMO - MODLIN
To EPSY - SZYMANY
Flight Number -
Tags generated
Created
Modified
Stats Distance 63 nm / 116 km
Max Altitude 500 ft / 152 m
Waypoints 3
Social Downloads 0
Likes 0
Share VATSIM

Download

Looking for another format? Having issues loading an existing format? Contact us
Advertisement - Login to hide

Notes

Basic altitude profile: - Ascent Rate: 2500ft/min - Ascent Speed: 250kts - Cruise Altitude: 35000ft - Cruise Speed: 420kts - Descent Rate: 1500ft/min - Descent Speed: 250kts Options: - Use NATs: yes - Use PACOTS: yes - Use low airways: yes - Use high airways: yes

Route

EPMO DW EPSY

ID Type Via Altitude Latitude Longitude Leg Dist Tot Dist Heading (true) Name
O EPMO APT - 0 ft / 0 m 52.45111˚ 20.65178˚ - 0 nm - MODLIN
DW NDB - 500 ft / 152 m 53.43713˚ 20.91234˚ 59 nm 59 nm 9° / 9° SZCZYTNO NDB
O EPSY APT - 0 ft / 0 m 53.47973˚ 20.93650˚ 2 nm 62 nm 19° / 19° SZYMANY

Altitude Profile

Advertisement - Login to hide

EPMO

Details ICAO EPMO (WMI)
Name MODLIN
Region Poland
Timezone Europe/Warsaw (UTC+1.0)
Stats Elevation 341 ft / 104 m (AMSL)
Location 52.451110° 20.651778°
Runways 1
Magnetic Variation 5.766° E

METAR

EPMO 130800Z 25008KT 9999 BKN027 01/M03 Q1016

Decode

TAF

TAF EPMO 130530Z 1306/1406 28010KT 9999 BKN030 PROB40 1306/1310 BKN012 BECMG 1310/1313 20005KT BECMG 1320/1322 17015KT

Decode

Departure Runways

ID Width Length Bearing (true) Bearing (mag) Surface Threshold Offset Overrun Length
08 197 ft / 60 m 8,188 ft / 2,496 m 81.96° 76.19° Asphalt 0 ft / 0 m 0 ft / 0 m
26 197 ft / 60 m 8,188 ft / 2,496 m 261.99° 256.22° Asphalt 0 ft / 0 m 0 ft / 0 m

EPSY

Details ICAO EPSY
Name SZYMANY
Region Poland
Timezone Europe/Warsaw (UTC+1.0)
Stats Elevation 463 ft / 141 m (AMSL)
Location 53.479731° 20.936497°
Runways 1
Magnetic Variation 6.015° E

METAR

EPSY 130800Z 23009KT 9999 BKN014 00/M02 Q1014 R01/CLRD//

Decode

TAF

Not found

Destination Runways

ID Width Length Bearing (true) Bearing (mag) Surface Threshold Offset Overrun Length
02 197 ft / 60 m 6,556 ft / 1,998 m 18.43° 12.42° Concrete 0 ft / 0 m 0 ft / 0 m
20 197 ft / 60 m 6,556 ft / 1,998 m 198.43° 192.42° Concrete 0 ft / 0 m 0 ft / 0 m

Approach Navaids

Runway Type Ident Frequency Range Bearing (true) Bearing (mag) Slope Elevation
02 Localiser SZN 110.10 MHz 18 nm / 33 km 18.44° 12.43° - 463 ft / 141 m (AMSL)
02 Glidescope SZN 110.10 MHz 10 nm / 19 km 18.43° 12.41° 3.00° 40 ft / 12 m (AMSL)
02 DME SZN 110.10 MHz 18 nm / 33 km - - - 492 ft / 150 m (AMSL)